sensor_id;sensor_type;location;lat;lon;timestamp;temperature;humidity
19880;DHT22;10102;50.828;4.416;2023-01-24T00:01:41;5.60;99.90
19880;DHT22;10102;50.828;4.416;2023-01-24T00:04:07;5.60;99.90
19880;DHT22;10102;50.828;4.416;2023-01-24T00:06:33;5.60;99.90
19880;DHT22;10102;50.828;4.416;2023-01-24T00:09:00;5.60;99.90
19880;DHT22;10102;50.828;4.416;2023-01-24T00:11:25;5.60;99.90
19880;DHT22;10102;50.828;4.416;2023-01-24T00:13:51;5.60;99.90
19880;DHT22;10102;50.828;4.416;2023-01-24T00:16:21;5.90;99.90
19880;DHT22;10102;50.828;4.416;2023-01-24T00:18:48;5.50;99.90
19880;DHT22;10102;50.828;4.416;2023-01-24T00:21:20;5.60;99.90
19880;DHT22;10102;50.828;4.416;2023-01-24T00:23:57;5.60;99.90
19880;DHT22;10102;50.828;4.416;2023-01-24T00:26:24;5.80;99.90
19880;DHT22;10102;50.828;4.416;2023-01-24T00:28:50;5.70;99.90
19880;DHT22;10102;50.828;4.416;2023-01-24T00:31:17;5.80;99.90
19880;DHT22;10102;50.828;4.416;2023-01-24T00:33:42;5.80;99.90
19880;DHT22;10102;50.828;4.416;2023-01-24T00:36:09;5.80;99.90
19880;DHT22;10102;50.828;4.416;2023-01-24T00:38:37;5.60;99.90
19880;DHT22;10102;50.828;4.416;2023-01-24T00:41:03;5.70;99.90
19880;DHT22;10102;50.828;4.416;2023-01-24T00:43:29;5.80;99.90
19880;DHT22;10102;50.828;4.416;2023-01-24T00:45:55;5.80;99.90
19880;DHT22;10102;50.828;4.416;2023-01-24T00:48:21;5.90;99.90
19880;DHT22;10102;50.828;4.416;2023-01-24T00:50:48;5.80;99.90
19880;DHT22;10102;50.828;4.416;2023-01-24T00:53:14;6.00;99.90
19880;DHT22;10102;50.828;4.416;2023-01-24T00:55:45;5.90;99.90
19880;DHT22;10102;50.828;4.416;2023-01-24T00:58:12;6.10;99.90
19880;DHT22;10102;50.828;4.416;2023-01-24T01:00:38;6.10;99.90
19880;DHT22;10102;50.828;4.416;2023-01-24T01:03:06;6.00;99.90
19880;DHT22;10102;50.828;4.416;2023-01-24T01:05:33;6.00;99.90
19880;DHT22;10102;50.828;4.416;2023-01-24T01:07:59;6.00;99.90
19880;DHT22;10102;50.828;4.416;2023-01-24T01:10:25;5.60;99.90
19880;DHT22;10102;50.828;4.416;2023-01-24T01:12:51;5.60;99.90
19880;DHT22;10102;50.828;4.416;2023-01-24T01:15:16;6.30;99.90
19880;DHT22;10102;50.828;4.416;2023-01-24T01:17:42;5.50;99.90
19880;DHT22;10102;50.828;4.416;2023-01-24T01:20:08;5.50;99.90
19880;DHT22;10102;50.828;4.416;2023-01-24T01:22:34;5.50;99.90
19880;DHT22;10102;50.828;4.416;2023-01-24T01:25:00;5.60;99.90
19880;DHT22;10102;50.828;4.416;2023-01-24T01:27:26;5.60;99.90
19880;DHT22;10102;50.828;4.416;2023-01-24T01:29:52;5.50;99.90
19880;DHT22;10102;50.828;4.416;2023-01-24T01:32:18;5.50;99.90
19880;DHT22;10102;50.828;4.416;2023-01-24T01:34:45;5.50;99.90
19880;DHT22;10102;50.828;4.416;2023-01-24T01:37:11;5.80;99.90
19880;DHT22;10102;50.828;4.416;2023-01-24T01:39:38;5.60;99.90
19880;DHT22;10102;50.828;4.416;2023-01-24T01:42:04;5.80;99.90
19880;DHT22;10102;50.828;4.416;2023-01-24T01:44:31;5.60;99.90
19880;DHT22;10102;50.828;4.416;2023-01-24T01:47:26;5.60;99.90
19880;DHT22;10102;50.828;4.416;2023-01-24T01:52:31;5.60;99.90
19880;DHT22;10102;50.828;4.416;2023-01-24T01:55:02;5.50;99.90
19880;DHT22;10102;50.828;4.416;2023-01-24T01:57:31;5.60;99.90
19880;DHT22;10102;50.828;4.416;2023-01-24T02:00:11;5.50;99.90
19880;DHT22;10102;50.828;4.416;2023-01-24T02:02:39;5.50;99.90
19880;DHT22;10102;50.828;4.416;2023-01-24T02:05:08;5.50;99.90
19880;DHT22;10102;50.828;4.416;2023-01-24T02:07:46;5.60;99.90
19880;DHT22;10102;50.828;4.416;2023-01-24T02:10:19;5.40;99.90
19880;DHT22;10102;50.828;4.416;2023-01-24T02:12:47;5.50;99.90
19880;DHT22;10102;50.828;4.416;2023-01-24T02:15:20;5.40;99.90
19880;DHT22;10102;50.828;4.416;2023-01-24T02:18:06;5.40;99.90
19880;DHT22;10102;50.828;4.416;2023-01-24T02:20:39;5.40;99.90
19880;DHT22;10102;50.828;4.416;2023-01-24T02:28:09;5.50;99.90
19880;DHT22;10102;50.828;4.416;2023-01-24T02:30:36;5.50;99.90
19880;DHT22;10102;50.828;4.416;2023-01-24T02:33:29;5.40;99.90
19880;DHT22;10102;50.828;4.416;2023-01-24T02:36:23;5.40;99.90
19880;DHT22;10102;50.828;4.416;2023-01-24T02:39:11;5.40;99.90
19880;DHT22;10102;50.828;4.416;2023-01-24T02:41:57;5.50;99.90
19880;DHT22;10102;50.828;4.416;2023-01-24T02:47:32;5.50;99.90
19880;DHT22;10102;50.828;4.416;2023-01-24T02:50:03;5.50;99.90
19880;DHT22;10102;50.828;4.416;2023-01-24T02:52:28;5.50;99.90
19880;DHT22;10102;50.828;4.416;2023-01-24T02:55:22;5.60;99.90
19880;DHT22;10102;50.828;4.416;2023-01-24T02:57:48;5.40;99.90
19880;DHT22;10102;50.828;4.416;2023-01-24T03:00:41;5.30;99.90
19880;DHT22;10102;50.828;4.416;2023-01-24T03:03:08;5.40;99.90
19880;DHT22;10102;50.828;4.416;2023-01-24T03:05:35;5.60;99.90
19880;DHT22;10102;50.828;4.416;2023-01-24T03:08:31;5.50;99.90
19880;DHT22;10102;50.828;4.416;2023-01-24T03:10:59;5.60;99.90
19880;DHT22;10102;50.828;4.416;2023-01-24T03:13:25;5.70;99.90
19880;DHT22;10102;50.828;4.416;2023-01-24T03:16:11;5.70;99.90
19880;DHT22;10102;50.828;4.416;2023-01-24T03:18:58;5.60;99.90
19880;DHT22;10102;50.828;4.416;2023-01-24T03:21:43;5.60;99.90
19880;DHT22;10102;50.828;4.416;2023-01-24T03:24:27;5.60;99.90
19880;DHT22;10102;50.828;4.416;2023-01-24T03:27:12;6.10;99.90
19880;DHT22;10102;50.828;4.416;2023-01-24T03:29:57;5.40;99.90
19880;DHT22;10102;50.828;4.416;2023-01-24T03:32:43;5.40;99.90
19880;DHT22;10102;50.828;4.416;2023-01-24T03:35:27;5.40;99.90
19880;DHT22;10102;50.828;4.416;2023-01-24T03:37:58;5.30;99.90
19880;DHT22;10102;50.828;4.416;2023-01-24T03:40:43;5.30;99.90
19880;DHT22;10102;50.828;4.416;2023-01-24T03:43:10;5.40;99.90
19880;DHT22;10102;50.828;4.416;2023-01-24T03:45:38;5.40;99.90
19880;DHT22;10102;50.828;4.416;2023-01-24T03:48:07;5.40;99.90
19880;DHT22;10102;50.828;4.416;2023-01-24T03:50:41;5.40;99.90
19880;DHT22;10102;50.828;4.416;2023-01-24T03:53:28;5.40;99.90
19880;DHT22;10102;50.828;4.416;2023-01-24T03:55:59;5.40;99.90
19880;DHT22;10102;50.828;4.416;2023-01-24T03:58:28;5.30;99.90
19880;DHT22;10102;50.828;4.416;2023-01-24T04:00:54;5.50;99.90
19880;DHT22;10102;50.828;4.416;2023-01-24T04:03:20;5.40;99.90
19880;DHT22;10102;50.828;4.416;2023-01-24T04:05:47;5.40;99.90
19880;DHT22;10102;50.828;4.416;2023-01-24T04:08:14;5.40;99.90
19880;DHT22;10102;50.828;4.416;2023-01-24T04:10:40;5.60;99.90
19880;DHT22;10102;50.828;4.416;2023-01-24T04:13:05;5.10;99.90
19880;DHT22;10102;50.828;4.416;2023-01-24T04:15:33;5.60;99.90
19880;DHT22;10102;50.828;4.416;2023-01-24T04:18:00;5.50;99.90
19880;DHT22;10102;50.828;4.416;2023-01-24T04:20:30;5.40;99.90
19880;DHT22;10102;50.828;4.416;2023-01-24T04:22:56;5.40;99.90
19880;DHT22;10102;50.828;4.416;2023-01-24T04:25:22;5.40;99.90
19880;DHT22;10102;50.828;4.416;2023-01-24T04:27:48;5.10;99.90
19880;DHT22;10102;50.828;4.416;2023-01-24T04:30:15;5.70;99.90
19880;DHT22;10102;50.828;4.416;2023-01-24T04:32:43;5.20;99.90
19880;DHT22;10102;50.828;4.416;2023-01-24T04:35:15;5.20;99.90
19880;DHT22;10102;50.828;4.416;2023-01-24T04:37:42;5.30;99.90
19880;DHT22;10102;50.828;4.416;2023-01-24T04:40:08;5.20;99.90
19880;DHT22;10102;50.828;4.416;2023-01-24T04:42:34;5.20;99.90
19880;DHT22;10102;50.828;4.416;2023-01-24T04:45:00;5.20;99.90
19880;DHT22;10102;50.828;4.416;2023-01-24T04:47:26;5.70;99.90
19880;DHT22;10102;50.828;4.416;2023-01-24T04:49:51;5.40;99.90
19880;DHT22;10102;50.828;4.416;2023-01-24T04:52:17;5.30;99.90
19880;DHT22;10102;50.828;4.416;2023-01-24T04:54:43;6.00;99.90
19880;DHT22;10102;50.828;4.416;2023-01-24T04:57:11;5.40;99.90
19880;DHT22;10102;50.828;4.416;2023-01-24T04:59:37;5.40;99.90
19880;DHT22;10102;50.828;4.416;2023-01-24T05:02:05;5.40;99.90
19880;DHT22;10102;50.828;4.416;2023-01-24T05:04:31;5.30;99.90
19880;DHT22;10102;50.828;4.416;2023-01-24T05:06:56;5.40;99.90
19880;DHT22;10102;50.828;4.416;2023-01-24T05:09:22;5.40;99.90
19880;DHT22;10102;50.828;4.416;2023-01-24T05:11:48;5.40;99.90
19880;DHT22;10102;50.828;4.416;2023-01-24T05:14:14;5.40;99.90
19880;DHT22;10102;50.828;4.416;2023-01-24T05:16:39;5.30;99.90
19880;DHT22;10102;50.828;4.416;2023-01-24T05:19:05;5.40;99.90
19880;DHT22;10102;50.828;4.416;2023-01-24T05:21:31;5.50;99.90
19880;DHT22;10102;50.828;4.416;2023-01-24T05:26:25;5.40;99.90
19880;DHT22;10102;50.828;4.416;2023-01-24T05:28:51;5.40;99.90
19880;DHT22;10102;50.828;4.416;2023-01-24T05:31:17;5.50;99.90
19880;DHT22;10102;50.828;4.416;2023-01-24T05:33:43;5.60;99.90
19880;DHT22;10102;50.828;4.416;2023-01-24T05:36:12;5.50;99.90
19880;DHT22;10102;50.828;4.416;2023-01-24T05:38:40;6.60;99.90
19880;DHT22;10102;50.828;4.416;2023-01-24T05:41:08;5.60;99.90
19880;DHT22;10102;50.828;4.416;2023-01-24T05:43:34;5.60;99.90
19880;DHT22;10102;50.828;4.416;2023-01-24T05:46:17;5.40;99.90
19880;DHT22;10102;50.828;4.416;2023-01-24T05:48:44;5.40;99.90
19880;DHT22;10102;50.828;4.416;2023-01-24T05:51:13;5.40;99.90
19880;DHT22;10102;50.828;4.416;2023-01-24T05:53:40;5.30;99.90
19880;DHT22;10102;50.828;4.416;2023-01-24T05:56:10;5.30;99.90
19880;DHT22;10102;50.828;4.416;2023-01-24T05:58:40;5.20;99.90
19880;DHT22;10102;50.828;4.416;2023-01-24T06:01:20;5.10;99.90
19880;DHT22;10102;50.828;4.416;2023-01-24T06:03:48;5.40;99.90
19880;DHT22;10102;50.828;4.416;2023-01-24T06:06:17;5.40;99.90
19880;DHT22;10102;50.828;4.416;2023-01-24T06:08:43;5.40;99.90
19880;DHT22;10102;50.828;4.416;2023-01-24T06:11:16;5.30;99.90
19880;DHT22;10102;50.828;4.416;2023-01-24T06:13:42;5.40;99.90
19880;DHT22;10102;50.828;4.416;2023-01-24T06:16:14;5.50;99.90
19880;DHT22;10102;50.828;4.416;2023-01-24T06:18:40;5.40;99.90
19880;DHT22;10102;50.828;4.416;2023-01-24T06:24:19;5.30;99.90
19880;DHT22;10102;50.828;4.416;2023-01-24T06:26:46;5.50;99.90
19880;DHT22;10102;50.828;4.416;2023-01-24T06:29:13;5.60;99.90
19880;DHT22;10102;50.828;4.416;2023-01-24T06:34:44;5.10;99.90
19880;DHT22;10102;50.828;4.416;2023-01-24T06:40:00;5.10;99.90
19880;DHT22;10102;50.828;4.416;2023-01-24T06:42:27;5.10;99.90
19880;DHT22;10102;50.828;4.416;2023-01-24T06:44:54;5.40;99.90
19880;DHT22;10102;50.828;4.416;2023-01-24T06:47:20;5.20;99.90
19880;DHT22;10102;50.828;4.416;2023-01-24T06:49:46;5.10;99.90
19880;DHT22;10102;50.828;4.416;2023-01-24T06:52:12;4.70;99.90
19880;DHT22;10102;50.828;4.416;2023-01-24T06:54:38;5.30;99.90
19880;DHT22;10102;50.828;4.416;2023-01-24T06:57:04;5.30;99.90
19880;DHT22;10102;50.828;4.416;2023-01-24T06:59:32;5.30;99.90
19880;DHT22;10102;50.828;4.416;2023-01-24T07:01:58;5.40;99.90
19880;DHT22;10102;50.828;4.416;2023-01-24T07:04:23;5.30;99.90
19880;DHT22;10102;50.828;4.416;2023-01-24T07:06:49;5.30;99.90
19880;DHT22;10102;50.828;4.416;2023-01-24T07:09:19;5.00;99.90
19880;DHT22;10102;50.828;4.416;2023-01-24T07:11:46;5.20;99.90
19880;DHT22;10102;50.828;4.416;2023-01-24T07:14:15;5.10;99.90
19880;DHT22;10102;50.828;4.416;2023-01-24T07:16:41;5.30;99.90
19880;DHT22;10102;50.828;4.416;2023-01-24T07:19:13;5.40;99.90
19880;DHT22;10102;50.828;4.416;2023-01-24T07:21:40;5.20;99.90
19880;DHT22;10102;50.828;4.416;2023-01-24T07:24:13;5.10;99.90
19880;DHT22;10102;50.828;4.416;2023-01-24T07:26:39;5.20;99.90
19880;DHT22;10102;50.828;4.416;2023-01-24T07:29:05;5.10;99.90
19880;DHT22;10102;50.828;4.416;2023-01-24T07:31:31;5.20;99.90
19880;DHT22;10102;50.828;4.416;2023-01-24T07:33:57;5.10;99.90
19880;DHT22;10102;50.828;4.416;2023-01-24T07:36:23;5.20;99.90
19880;DHT22;10102;50.828;4.416;2023-01-24T07:38:54;5.30;99.90
19880;DHT22;10102;50.828;4.416;2023-01-24T07:41:19;5.20;99.90
19880;DHT22;10102;50.828;4.416;2023-01-24T07:43:45;5.20;99.90
19880;DHT22;10102;50.828;4.416;2023-01-24T07:46:11;5.20;99.90
19880;DHT22;10102;50.828;4.416;2023-01-24T07:48:37;5.40;99.90
19880;DHT22;10102;50.828;4.416;2023-01-24T07:51:02;5.10;99.90
19880;DHT22;10102;50.828;4.416;2023-01-24T07:53:28;5.10;99.90
19880;DHT22;10102;50.828;4.416;2023-01-24T07:55:57;5.10;99.90
19880;DHT22;10102;50.828;4.416;2023-01-24T07:58:23;5.10;99.90
19880;DHT22;10102;50.828;4.416;2023-01-24T08:00:49;5.10;99.90
19880;DHT22;10102;50.828;4.416;2023-01-24T08:03:15;5.00;99.90
19880;DHT22;10102;50.828;4.416;2023-01-24T08:05:41;5.00;99.90
19880;DHT22;10102;50.828;4.416;2023-01-24T08:08:06;5.20;99.90
19880;DHT22;10102;50.828;4.416;2023-01-24T08:10:32;5.20;99.90
19880;DHT22;10102;50.828;4.416;2023-01-24T08:12:59;5.10;99.90
19880;DHT22;10102;50.828;4.416;2023-01-24T08:15:25;5.20;99.90
19880;DHT22;10102;50.828;4.416;2023-01-24T08:17:51;5.60;99.90
19880;DHT22;10102;50.828;4.416;2023-01-24T08:20:17;5.30;99.90
19880;DHT22;10102;50.828;4.416;2023-01-24T08:22:43;5.30;99.90
19880;DHT22;10102;50.828;4.416;2023-01-24T08:25:09;5.30;99.90
19880;DHT22;10102;50.828;4.416;2023-01-24T08:27:35;5.40;99.90
19880;DHT22;10102;50.828;4.416;2023-01-24T08:30:02;5.40;99.90
19880;DHT22;10102;50.828;4.416;2023-01-24T08:32:28;5.20;99.90
19880;DHT22;10102;50.828;4.416;2023-01-24T08:34:54;5.30;99.90
19880;DHT22;10102;50.828;4.416;2023-01-24T08:37:20;6.50;99.90
19880;DHT22;10102;50.828;4.416;2023-01-24T08:39:45;5.30;99.90
19880;DHT22;10102;50.828;4.416;2023-01-24T08:42:11;5.40;99.90
19880;DHT22;10102;50.828;4.416;2023-01-24T08:44:37;5.40;99.90
19880;DHT22;10102;50.828;4.416;2023-01-24T08:47:03;5.50;99.90
19880;DHT22;10102;50.828;4.416;2023-01-24T08:49:29;5.30;99.90
19880;DHT22;10102;50.828;4.416;2023-01-24T08:51:54;5.20;99.90
19880;DHT22;10102;50.828;4.416;2023-01-24T08:54:28;5.90;99.90
19880;DHT22;10102;50.828;4.416;2023-01-24T08:56:55;5.20;99.90
19880;DHT22;10102;50.828;4.416;2023-01-24T08:59:22;5.30;99.90
19880;DHT22;10102;50.828;4.416;2023-01-24T09:01:48;5.40;99.90
19880;DHT22;10102;50.828;4.416;2023-01-24T09:04:14;5.40;99.90
19880;DHT22;10102;50.828;4.416;2023-01-24T09:06:40;5.40;99.90
19880;DHT22;10102;50.828;4.416;2023-01-24T09:09:06;5.50;99.90
19880;DHT22;10102;50.828;4.416;2023-01-24T09:11:32;5.50;99.90
19880;DHT22;10102;50.828;4.416;2023-01-24T09:13:58;5.50;99.90
19880;DHT22;10102;50.828;4.416;2023-01-24T09:16:24;5.60;99.90
19880;DHT22;10102;50.828;4.416;2023-01-24T09:18:50;5.60;99.90
19880;DHT22;10102;50.828;4.416;2023-01-24T09:21:17;6.30;99.90
19880;DHT22;10102;50.828;4.416;2023-01-24T09:23:43;5.60;99.90
19880;DHT22;10102;50.828;4.416;2023-01-24T09:26:10;5.60;99.90
19880;DHT22;10102;50.828;4.416;2023-01-24T09:28:39;6.00;99.90
19880;DHT22;10102;50.828;4.416;2023-01-24T09:31:09;5.50;99.90
19880;DHT22;10102;50.828;4.416;2023-01-24T09:33:36;5.80;99.90
19880;DHT22;10102;50.828;4.416;2023-01-24T09:36:02;6.80;99.90
19880;DHT22;10102;50.828;4.416;2023-01-24T09:38:31;5.70;99.90
19880;DHT22;10102;50.828;4.416;2023-01-24T09:43:45;5.80;99.90
19880;DHT22;10102;50.828;4.416;2023-01-24T09:48:47;6.80;99.90
19880;DHT22;10102;50.828;4.416;2023-01-24T09:51:21;6.00;99.90
19880;DHT22;10102;50.828;4.416;2023-01-24T09:53:52;5.90;99.90
19880;DHT22;10102;50.828;4.416;2023-01-24T10:01:37;6.00;99.90
19880;DHT22;10102;50.828;4.416;2023-01-24T10:07:24;6.00;99.90
19880;DHT22;10102;50.828;4.416;2023-01-24T10:10:20;6.10;99.90
19880;DHT22;10102;50.828;4.416;2023-01-24T10:15:57;6.00;99.90
19880;DHT22;10102;50.828;4.416;2023-01-24T10:19:03;5.90;99.90
19880;DHT22;10102;50.828;4.416;2023-01-24T10:21:49;5.90;99.90
19880;DHT22;10102;50.828;4.416;2023-01-24T10:24:27;5.90;99.90
19880;DHT22;10102;50.828;4.416;2023-01-24T10:26:56;6.10;99.90
19880;DHT22;10102;50.828;4.416;2023-01-24T10:29:35;6.10;99.90
19880;DHT22;10102;50.828;4.416;2023-01-24T10:32:05;6.10;99.90
19880;DHT22;10102;50.828;4.416;2023-01-24T10:34:47;6.10;99.90
19880;DHT22;10102;50.828;4.416;2023-01-24T10:37:25;6.10;99.90
19880;DHT22;10102;50.828;4.416;2023-01-24T10:39:54;6.30;99.90
19880;DHT22;10102;50.828;4.416;2023-01-24T10:42:30;6.40;99.90
19880;DHT22;10102;50.828;4.416;2023-01-24T10:45:01;6.40;99.90
19880;DHT22;10102;50.828;4.416;2023-01-24T10:47:44;6.30;99.90
19880;DHT22;10102;50.828;4.416;2023-01-24T10:50:16;6.30;99.90
19880;DHT22;10102;50.828;4.416;2023-01-24T10:52:43;6.30;99.90
19880;DHT22;10102;50.828;4.416;2023-01-24T10:55:31;6.20;99.90
19880;DHT22;10102;50.828;4.416;2023-01-24T10:58:03;6.10;99.90
19880;DHT22;10102;50.828;4.416;2023-01-24T11:00:43;5.90;99.90
19880;DHT22;10102;50.828;4.416;2023-01-24T11:03:23;5.90;99.90
19880;DHT22;10102;50.828;4.416;2023-01-24T11:05:51;6.00;99.90
19880;DHT22;10102;50.828;4.416;2023-01-24T11:08:36;6.10;99.90
19880;DHT22;10102;50.828;4.416;2023-01-24T11:11:15;6.10;99.90
19880;DHT22;10102;50.828;4.416;2023-01-24T11:13:44;6.20;99.90
19880;DHT22;10102;50.828;4.416;2023-01-24T11:19:04;6.20;99.90
19880;DHT22;10102;50.828;4.416;2023-01-24T11:21:32;6.10;99.90
19880;DHT22;10102;50.828;4.416;2023-01-24T11:24:17;6.10;99.90
19880;DHT22;10102;50.828;4.416;2023-01-24T11:27:01;6.10;99.90
19880;DHT22;10102;50.828;4.416;2023-01-24T11:29:27;6.00;99.90
19880;DHT22;10102;50.828;4.416;2023-01-24T11:31:55;6.00;99.90
19880;DHT22;10102;50.828;4.416;2023-01-24T11:35:14;6.10;99.90
19880;DHT22;10102;50.828;4.416;2023-01-24T11:49:16;6.50;99.90
19880;DHT22;10102;50.828;4.416;2023-01-24T11:51:59;6.60;99.90
19880;DHT22;10102;50.828;4.416;2023-01-24T12:00:18;6.10;99.90
19880;DHT22;10102;50.828;4.416;2023-01-24T12:13:46;7.30;99.90
19880;DHT22;10102;50.828;4.416;2023-01-24T12:19:38;6.70;99.90
19880;DHT22;10102;50.828;4.416;2023-01-24T12:22:19;8.90;99.90
19880;DHT22;10102;50.828;4.416;2023-01-24T12:24:52;6.70;99.90
19880;DHT22;10102;50.828;4.416;2023-01-24T12:27:25;6.80;99.90
19880;DHT22;10102;50.828;4.416;2023-01-24T12:29:56;6.70;99.90
19880;DHT22;10102;50.828;4.416;2023-01-24T12:32:44;6.50;99.90
19880;DHT22;10102;50.828;4.416;2023-01-24T12:38:20;6.50;99.90
19880;DHT22;10102;50.828;4.416;2023-01-24T12:46:57;6.50;99.90
19880;DHT22;10102;50.828;4.416;2023-01-24T12:55:12;6.90;99.90
19880;DHT22;10102;50.828;4.416;2023-01-24T12:57:41;6.80;99.90
19880;DHT22;10102;50.828;4.416;2023-01-24T13:00:19;6.80;99.90
19880;DHT22;10102;50.828;4.416;2023-01-24T13:08:37;6.80;99.90
19880;DHT22;10102;50.828;4.416;2023-01-24T13:11:22;6.80;99.90
19880;DHT22;10102;50.828;4.416;2023-01-24T13:14:06;6.80;99.90
19880;DHT22;10102;50.828;4.416;2023-01-24T13:17:10;6.90;99.90
19880;DHT22;10102;50.828;4.416;2023-01-24T13:22:37;7.00;99.90
19880;DHT22;10102;50.828;4.416;2023-01-24T13:32:59;7.10;99.90
19880;DHT22;10102;50.828;4.416;2023-01-24T13:35:27;7.10;99.90
19880;DHT22;10102;50.828;4.416;2023-01-24T13:38:22;7.00;99.90
19880;DHT22;10102;50.828;4.416;2023-01-24T13:40:58;7.10;99.90
19880;DHT22;10102;50.828;4.416;2023-01-24T13:49:32;6.90;99.90
19880;DHT22;10102;50.828;4.416;2023-01-24T13:52:02;7.00;99.90
19880;DHT22;10102;50.828;4.416;2023-01-24T13:59:32;6.80;99.90
19880;DHT22;10102;50.828;4.416;2023-01-24T14:02:02;6.70;99.90
19880;DHT22;10102;50.828;4.416;2023-01-24T14:04:42;6.70;99.90
19880;DHT22;10102;50.828;4.416;2023-01-24T14:09:59;6.70;99.90
19880;DHT22;10102;50.828;4.416;2023-01-24T14:12:26;6.70;99.90
19880;DHT22;10102;50.828;4.416;2023-01-24T14:22:53;6.50;99.90
19880;DHT22;10102;50.828;4.416;2023-01-24T14:25:46;6.50;99.90
19880;DHT22;10102;50.828;4.416;2023-01-24T14:30:49;6.40;99.90
19880;DHT22;10102;50.828;4.416;2023-01-24T14:33:45;6.20;99.90
19880;DHT22;10102;50.828;4.416;2023-01-24T14:36:30;6.10;99.90
19880;DHT22;10102;50.828;4.416;2023-01-24T14:41:48;6.10;99.90
19880;DHT22;10102;50.828;4.416;2023-01-24T14:44:21;6.20;99.90
19880;DHT22;10102;50.828;4.416;2023-01-24T14:49:43;6.30;99.90
19880;DHT22;10102;50.828;4.416;2023-01-24T14:52:22;6.30;99.90
19880;DHT22;10102;50.828;4.416;2023-01-24T14:55:37;6.30;99.90
19880;DHT22;10102;50.828;4.416;2023-01-24T14:57:44;6.50;99.90
19880;DHT22;10102;50.828;4.416;2023-01-24T15:02:59;6.20;99.90
19880;DHT22;10102;50.828;4.416;2023-01-24T15:05:37;6.30;99.90
19880;DHT22;10102;50.828;4.416;2023-01-24T15:08:05;6.20;99.90
19880;DHT22;10102;50.828;4.416;2023-01-24T15:10:34;6.20;99.90
19880;DHT22;10102;50.828;4.416;2023-01-24T15:13:03;6.20;99.90
19880;DHT22;10102;50.828;4.416;2023-01-24T15:15:33;6.10;99.90
19880;DHT22;10102;50.828;4.416;2023-01-24T15:18:05;6.10;99.90
19880;DHT22;10102;50.828;4.416;2023-01-24T15:20:34;6.20;99.90
19880;DHT22;10102;50.828;4.416;2023-01-24T15:23:01;6.10;99.90
19880;DHT22;10102;50.828;4.416;2023-01-24T15:25:32;6.10;99.90
19880;DHT22;10102;50.828;4.416;2023-01-24T15:28:20;6.20;99.90
19880;DHT22;10102;50.828;4.416;2023-01-24T15:31:00;6.00;99.90
19880;DHT22;10102;50.828;4.416;2023-01-24T15:33:42;5.80;99.90
19880;DHT22;10102;50.828;4.416;2023-01-24T15:36:29;5.80;99.90
19880;DHT22;10102;50.828;4.416;2023-01-24T15:38:57;5.90;99.90
19880;DHT22;10102;50.828;4.416;2023-01-24T15:41:25;5.90;99.90
19880;DHT22;10102;50.828;4.416;2023-01-24T15:44:11;5.80;99.90
19880;DHT22;10102;50.828;4.416;2023-01-24T15:46:44;5.90;99.90
19880;DHT22;10102;50.828;4.416;2023-01-24T15:49:34;5.80;99.90
19880;DHT22;10102;50.828;4.416;2023-01-24T15:54:40;5.80;99.90
19880;DHT22;10102;50.828;4.416;2023-01-24T15:59:46;5.80;99.90
19880;DHT22;10102;50.828;4.416;2023-01-24T16:02:14;5.90;99.90
19880;DHT22;10102;50.828;4.416;2023-01-24T16:04:40;5.90;99.90
19880;DHT22;10102;50.828;4.416;2023-01-24T16:07:06;6.10;99.90
19880;DHT22;10102;50.828;4.416;2023-01-24T16:09:32;5.90;99.90
19880;DHT22;10102;50.828;4.416;2023-01-24T16:11:59;6.00;99.90
19880;DHT22;10102;50.828;4.416;2023-01-24T16:14:26;6.10;99.90
19880;DHT22;10102;50.828;4.416;2023-01-24T16:16:55;6.10;99.90
19880;DHT22;10102;50.828;4.416;2023-01-24T16:19:23;6.10;99.90
19880;DHT22;10102;50.828;4.416;2023-01-24T16:21:49;6.10;99.90
19880;DHT22;10102;50.828;4.416;2023-01-24T16:24:16;6.10;99.90
19880;DHT22;10102;50.828;4.416;2023-01-24T16:26:50;6.20;99.90
19880;DHT22;10102;50.828;4.416;2023-01-24T16:29:18;6.20;99.90
19880;DHT22;10102;50.828;4.416;2023-01-24T16:31:45;6.40;99.90
19880;DHT22;10102;50.828;4.416;2023-01-24T16:34:12;6.10;99.90
19880;DHT22;10102;50.828;4.416;2023-01-24T16:36:38;5.90;99.90
19880;DHT22;10102;50.828;4.416;2023-01-24T16:39:05;5.80;99.90
19880;DHT22;10102;50.828;4.416;2023-01-24T16:41:31;5.80;99.90
19880;DHT22;10102;50.828;4.416;2023-01-24T16:43:57;5.80;99.90
19880;DHT22;10102;50.828;4.416;2023-01-24T16:46:23;5.80;99.90
19880;DHT22;10102;50.828;4.416;2023-01-24T16:48:49;6.00;99.90
19880;DHT22;10102;50.828;4.416;2023-01-24T16:51:17;6.00;99.90
19880;DHT22;10102;50.828;4.416;2023-01-24T16:53:45;6.00;99.90
19880;DHT22;10102;50.828;4.416;2023-01-24T16:56:12;5.90;99.90
19880;DHT22;10102;50.828;4.416;2023-01-24T16:58:38;5.90;99.90
19880;DHT22;10102;50.828;4.416;2023-01-24T17:01:08;5.80;99.90
19880;DHT22;10102;50.828;4.416;2023-01-24T17:03:34;5.70;99.90
19880;DHT22;10102;50.828;4.416;2023-01-24T17:06:00;5.70;99.90
19880;DHT22;10102;50.828;4.416;2023-01-24T17:08:27;5.90;99.90
19880;DHT22;10102;50.828;4.416;2023-01-24T17:11:02;6.10;99.90
19880;DHT22;10102;50.828;4.416;2023-01-24T17:13:28;5.70;99.90
19880;DHT22;10102;50.828;4.416;2023-01-24T17:15:54;5.80;99.90
19880;DHT22;10102;50.828;4.416;2023-01-24T17:18:21;5.80;99.90
19880;DHT22;10102;50.828;4.416;2023-01-24T17:20:46;5.70;99.90
19880;DHT22;10102;50.828;4.416;2023-01-24T17:23:12;5.80;99.90
19880;DHT22;10102;50.828;4.416;2023-01-24T17:25:38;5.60;99.90
19880;DHT22;10102;50.828;4.416;2023-01-24T17:28:04;5.70;99.90
19880;DHT22;10102;50.828;4.416;2023-01-24T17:30:29;5.70;99.90
19880;DHT22;10102;50.828;4.416;2023-01-24T17:32:55;5.60;99.90
19880;DHT22;10102;50.828;4.416;2023-01-24T17:35:21;5.60;99.90
19880;DHT22;10102;50.828;4.416;2023-01-24T17:37:47;5.80;99.90
19880;DHT22;10102;50.828;4.416;2023-01-24T17:40:12;5.70;99.90
19880;DHT22;10102;50.828;4.416;2023-01-24T17:42:39;5.70;99.90
19880;DHT22;10102;50.828;4.416;2023-01-24T17:45:07;4.70;99.90
19880;DHT22;10102;50.828;4.416;2023-01-24T17:47:34;5.70;99.90
19880;DHT22;10102;50.828;4.416;2023-01-24T17:50:00;5.70;99.90
19880;DHT22;10102;50.828;4.416;2023-01-24T17:52:26;5.90;99.90
19880;DHT22;10102;50.828;4.416;2023-01-24T17:54:51;5.60;99.90
19880;DHT22;10102;50.828;4.416;2023-01-24T17:57:17;5.50;99.90
19880;DHT22;10102;50.828;4.416;2023-01-24T17:59:43;5.40;99.90
19880;DHT22;10102;50.828;4.416;2023-01-24T18:02:09;5.70;99.90
19880;DHT22;10102;50.828;4.416;2023-01-24T18:04:35;5.40;99.90
19880;DHT22;10102;50.828;4.416;2023-01-24T18:07:01;5.50;99.90
19880;DHT22;10102;50.828;4.416;2023-01-24T18:09:27;5.70;99.90
19880;DHT22;10102;50.828;4.416;2023-01-24T18:11:53;5.60;99.90
19880;DHT22;10102;50.828;4.416;2023-01-24T18:14:18;5.50;99.90
19880;DHT22;10102;50.828;4.416;2023-01-24T18:16:44;6.20;99.90
19880;DHT22;10102;50.828;4.416;2023-01-24T18:19:10;5.60;99.90
19880;DHT22;10102;50.828;4.416;2023-01-24T18:21:36;6.50;99.90
19880;DHT22;10102;50.828;4.416;2023-01-24T18:24:02;6.30;99.90
19880;DHT22;10102;50.828;4.416;2023-01-24T18:26:29;5.70;99.90
19880;DHT22;10102;50.828;4.416;2023-01-24T18:28:56;5.60;99.90